createdAt,value
2018-05-04T00:01:12.220Z,100279.98
2018-05-04T00:03:38.185Z,100290.99
2018-05-04T00:06:04.148Z,100302.84
2018-05-04T00:08:30.112Z,100300.28
2018-05-04T00:10:56.069Z,100296.06
2018-05-04T00:13:22.055Z,100293.11
2018-05-04T00:15:48.040Z,100296.92
2018-05-04T00:18:14.029Z,100296.07
2018-05-04T00:20:40.019Z,100307.50
2018-05-04T00:23:05.959Z,100312.97
2018-05-04T00:25:31.927Z,100311.73
2018-05-04T00:27:57.885Z,100315.52
2018-05-04T00:30:23.850Z,100315.95
2018-05-04T00:32:49.807Z,100307.91
2018-05-04T00:35:15.775Z,100313.81
2018-05-04T00:37:41.729Z,100320.19
2018-05-04T00:40:07.705Z,100324.39
2018-05-04T00:42:33.673Z,100323.12
2018-05-04T00:44:59.663Z,100332.41
2018-05-04T00:47:25.597Z,100341.65
2018-05-04T00:49:51.585Z,100332.44
2018-05-04T00:52:17.543Z,100335.39
2018-05-04T00:54:43.508Z,100335.38
2018-05-04T00:57:09.540Z,100342.98
2018-05-04T00:59:35.512Z,100348.48
2018-05-04T01:02:01.455Z,100345.05
2018-05-04T01:04:27.397Z,100342.56
2018-05-04T01:06:53.370Z,100347.14
2018-05-04T01:09:19.342Z,100345.52
2018-05-04T01:11:45.289Z,100347.63
2018-05-04T01:14:11.263Z,100354.41
2018-05-04T01:16:37.205Z,100358.20
2018-05-04T01:19:03.140Z,100359.91
2018-05-04T01:21:29.087Z,100355.63
2018-05-04T01:23:55.057Z,100362.42
2018-05-04T01:26:21.040Z,100363.73
2018-05-04T01:28:47.036Z,100359.02
2018-05-04T01:31:12.990Z,100362.83
2018-05-04T01:33:38.952Z,100367.08
2018-05-04T01:36:04.907Z,100371.70
2018-05-04T01:38:30.868Z,100370.41
2018-05-04T01:40:56.828Z,100370.45
2018-05-04T01:43:22.893Z,100378.08
2018-05-04T01:45:48.860Z,100373.77
2018-05-04T01:48:14.817Z,100378.05
2018-05-04T01:50:40.793Z,100375.91
2018-05-04T01:53:06.756Z,100373.80
2018-05-04T01:55:32.735Z,100377.22
2018-05-04T01:57:58.692Z,100372.15
2018-05-04T02:00:24.658Z,100367.89
2018-05-04T02:02:50.590Z,100370.03
2018-05-04T02:05:16.559Z,100365.83
2018-05-04T02:07:42.622Z,100352.59
2018-05-04T02:10:08.547Z,100356.39
2018-05-04T02:12:34.492Z,100353.05
2018-05-04T02:15:00.480Z,100345.03
2018-05-04T02:17:26.437Z,100339.14
2018-05-04T02:19:52.418Z,100342.13
2018-05-04T02:22:18.415Z,100350.59
2018-05-04T02:24:44.363Z,100337.94
2018-05-04T02:27:10.317Z,100336.13
2018-05-04T02:29:36.272Z,100337.77
2018-05-04T02:32:02.224Z,100336.50
2018-05-04T02:34:28.165Z,100339.13
2018-05-04T02:36:54.107Z,100334.00
2018-05-04T02:39:20.071Z,100325.50
2018-05-04T02:41:46.028Z,100321.33
2018-05-04T02:44:12.018Z,100320.00
2018-05-04T02:46:37.993Z,100321.39
2018-05-04T02:49:03.979Z,100323.45
2018-05-04T02:51:29.953Z,100326.88
2018-05-04T02:53:55.894Z,100318.02
2018-05-04T02:56:21.852Z,100321.83
2018-05-04T02:58:47.804Z,100319.72
2018-05-04T03:01:13.781Z,100320.11
2018-05-04T03:03:39.756Z,100320.92
2018-05-04T03:06:05.727Z,100316.73
2018-05-04T03:08:31.753Z,100315.04
2018-05-04T03:10:57.717Z,100312.06
2018-05-04T03:13:23.650Z,100314.62
2018-05-04T03:15:49.616Z,100307.02
2018-05-04T03:18:15.658Z,100310.42
2018-05-04T03:20:41.651Z,100319.27
2018-05-04T03:23:07.600Z,100310.42
2018-05-04T03:25:33.558Z,100313.80
2018-05-04T03:27:59.518Z,100317.92
2018-05-04T03:30:25.489Z,100314.98
2018-05-04T03:32:51.467Z,100317.53
2018-05-04T03:35:17.431Z,100325.15
2018-05-04T03:37:43.426Z,100320.50
2018-05-04T03:40:09.404Z,100318.84
2018-05-04T03:42:35.412Z,100331.12
2018-05-04T03:45:01.390Z,100330.70
2018-05-04T03:47:27.438Z,100328.59
2018-05-04T03:49:53.393Z,100332.80
2018-05-04T03:52:19.356Z,100328.98
2018-05-04T03:54:45.332Z,100329.80
2018-05-04T03:57:11.402Z,100335.30
2018-05-04T03:59:37.465Z,100334.45
2018-05-04T04:02:04.186Z,100340.37
2018-05-04T04:04:30.256Z,100342.48
2018-05-04T04:06:56.225Z,100346.31
2018-05-04T04:09:22.170Z,100350.55
2018-05-04T04:11:48.158Z,100352.25
2018-05-04T04:14:14.152Z,100349.28
2018-05-04T04:16:40.138Z,100353.93
2018-05-04T04:19:06.091Z,100362.36
2018-05-04T04:21:32.047Z,100361.51
2018-05-04T04:23:58.080Z,100363.64
2018-05-04T04:26:24.113Z,100362.39
2018-05-04T04:28:50.115Z,100366.59
2018-05-04T04:31:16.078Z,100376.35
2018-05-04T04:33:42.061Z,100386.45
2018-05-04T04:36:08.029Z,100393.67
2018-05-04T04:38:34.043Z,100389.35
2018-05-04T04:41:00.037Z,100386.47
2018-05-04T04:43:25.984Z,100392.83
2018-05-04T04:45:52.016Z,100391.92
2018-05-04T04:48:18.026Z,100396.95
2018-05-04T04:50:44.069Z,100387.72
2018-05-04T04:53:10.037Z,100393.21
2018-05-04T04:55:35.999Z,100396.98
2018-05-04T04:58:01.959Z,100409.99
2018-05-04T05:00:27.944Z,100407.58
2018-05-04T05:02:53.902Z,100413.41
2018-05-04T05:05:19.863Z,100421.88
2018-05-04T05:07:45.843Z,100417.65
2018-05-04T05:10:11.803Z,100423.56
2018-05-04T05:12:37.768Z,100429.16
2018-05-04T05:15:03.782Z,100424.47
2018-05-04T05:17:29.767Z,100422.79
2018-05-04T05:19:55.719Z,100432.94
2018-05-04T05:22:21.733Z,100435.83
2018-05-04T05:24:47.701Z,100436.33
2018-05-04T05:27:13.921Z,100437.59
2018-05-04T05:29:39.875Z,100440.06
2018-05-04T05:32:05.819Z,100435.89
2018-05-04T05:34:31.807Z,100438.02
2018-05-04T05:36:57.746Z,100438.38
2018-05-04T05:39:23.721Z,100446.02
2018-05-04T05:41:49.690Z,100442.21
2018-05-04T05:44:15.672Z,100452.02
2018-05-04T05:46:41.610Z,100451.58
2018-05-04T05:49:07.583Z,100453.03
2018-05-04T05:51:33.548Z,100461.61
2018-05-04T05:53:59.607Z,100462.55
2018-05-04T05:56:25.558Z,100469.30
2018-05-04T05:58:51.496Z,100464.21
2018-05-04T06:01:18.458Z,100473.97
2018-05-04T06:03:44.394Z,100478.13
2018-05-04T06:06:10.393Z,100479.28
2018-05-04T06:08:36.353Z,100473.06
2018-05-04T06:11:02.327Z,100468.45
2018-05-04T06:13:28.306Z,100473.75
2018-05-04T06:15:54.280Z,100473.05
2018-05-04T06:18:20.274Z,100469.30
2018-05-04T06:20:46.225Z,100470.20
2018-05-04T06:23:12.252Z,100466.35
2018-05-04T06:25:38.209Z,100474.39
2018-05-04T06:28:04.155Z,100473.14
2018-05-04T06:30:30.116Z,100474.66
2018-05-04T06:32:56.150Z,100478.09
2018-05-04T06:35:22.103Z,100472.69
2018-05-04T06:37:48.089Z,100470.27
2018-05-04T06:40:14.039Z,100471.18
2018-05-04T06:42:39.994Z,100473.67
2018-05-04T06:45:05.994Z,100468.11
2018-05-04T06:47:31.982Z,100470.71
2018-05-04T06:49:57.961Z,100476.31
2018-05-04T06:52:23.998Z,100480.05
2018-05-04T06:54:49.970Z,100474.01
2018-05-04T06:57:15.979Z,100471.71
2018-05-04T06:59:41.938Z,100467.72
2018-05-04T07:02:07.893Z,100472.94
2018-05-04T07:04:33.863Z,100462.03
2018-05-04T07:06:59.875Z,100480.66
2018-05-04T07:09:25.854Z,100478.05
2018-05-04T07:11:51.844Z,100478.33
2018-05-04T07:14:17.802Z,100478.70
2018-05-04T07:16:43.770Z,100484.93
2018-05-04T07:19:09.784Z,100483.48
2018-05-04T07:21:35.735Z,100484.03
2018-05-04T07:24:01.673Z,100476.77
2018-05-04T07:26:27.638Z,100487.68
2018-05-04T07:28:53.640Z,100488.06
2018-05-04T07:31:19.942Z,100492.22
2018-05-04T07:33:45.943Z,100476.83
2018-05-04T07:36:11.937Z,100494.80
2018-05-04T07:38:37.958Z,100488.16
2018-05-04T07:41:03.889Z,100498.84
2018-05-04T07:43:29.869Z,100489.02
2018-05-04T07:45:55.828Z,100495.13
2018-05-04T07:48:21.813Z,100484.44
2018-05-04T07:50:47.773Z,100498.61
2018-05-04T07:53:13.729Z,100492.91
2018-05-04T07:55:39.677Z,100488.52
2018-05-04T07:58:05.658Z,100485.67
2018-05-04T08:00:31.602Z,100492.83
2018-05-04T08:02:57.651Z,100492.46
2018-05-04T08:05:23.664Z,100493.86
2018-05-04T08:07:49.633Z,100495.48
2018-05-04T08:10:15.606Z,100500.36
2018-05-04T08:12:41.559Z,100491.62
2018-05-04T08:15:07.554Z,100489.45
2018-05-04T08:17:33.533Z,100504.86
2018-05-04T08:19:59.647Z,100499.11
2018-05-04T08:22:25.534Z,100500.17
2018-05-04T08:24:51.562Z,100492.42
2018-05-04T08:27:17.619Z,100500.69
2018-05-04T08:29:43.534Z,100498.57
2018-05-04T08:32:09.491Z,100503.32
2018-05-04T08:34:35.465Z,100495.64
2018-05-04T08:37:01.411Z,100493.38
2018-05-04T08:39:27.415Z,100485.73
2018-05-04T08:41:53.378Z,100486.47
2018-05-04T08:44:19.353Z,100492.45
2018-05-04T08:46:45.347Z,100490.55
2018-05-04T08:49:11.396Z,100496.78
2018-05-04T08:51:37.355Z,100485.27
2018-05-04T08:54:03.310Z,100488.20
2018-05-04T08:56:29.274Z,100487.39
2018-05-04T08:58:55.257Z,100482.45
2018-05-04T09:01:21.211Z,100487.53
2018-05-04T09:03:47.205Z,100492.20
2018-05-04T09:06:13.183Z,100491.02
2018-05-04T09:08:39.148Z,100489.91
2018-05-04T09:11:05.130Z,100489.66
2018-05-04T09:13:31.093Z,100488.80
2018-05-04T09:15:57.066Z,100486.38
2018-05-04T09:18:23.037Z,100490.42
2018-05-04T09:20:48.995Z,100481.39
2018-05-04T09:23:15.034Z,100484.61
2018-05-04T09:25:41.019Z,100484.79
2018-05-04T09:28:07.023Z,100486.02
2018-05-04T09:30:33.047Z,100487.51
2018-05-04T09:32:59.027Z,100495.69
2018-05-04T09:35:24.981Z,100486.65
2018-05-04T09:37:50.918Z,100480.81
2018-05-04T09:40:16.892Z,100487.45
2018-05-04T09:42:42.860Z,100479.88
2018-05-04T09:45:08.845Z,100487.81
2018-05-04T09:47:34.795Z,100479.39
2018-05-04T09:50:00.777Z,100481.89
2018-05-04T09:52:26.748Z,100485.09
2018-05-04T09:54:52.728Z,100479.44
2018-05-04T09:57:18.665Z,100490.00
2018-05-04T09:59:44.608Z,100482.00
2018-05-04T10:02:10.608Z,100474.30
2018-05-04T10:04:36.571Z,100480.17
2018-05-04T10:07:02.537Z,100480.74
2018-05-04T10:09:28.497Z,100482.77
2018-05-04T10:11:54.443Z,100472.25
2018-05-04T10:14:20.443Z,100467.55
2018-05-04T10:16:46.390Z,100471.96
2018-05-04T10:19:12.359Z,100468.19
2018-05-04T10:21:38.326Z,100469.12
2018-05-04T10:24:04.313Z,100460.69
2018-05-04T10:26:30.349Z,100458.55
2018-05-04T10:28:56.299Z,100460.66
2018-05-04T10:31:22.311Z,100461.80
2018-05-04T10:33:48.236Z,100458.73
2018-05-04T10:36:14.286Z,100456.42
2018-05-04T10:38:40.272Z,100461.77
2018-05-04T10:41:06.176Z,100465.33
2018-05-04T10:43:32.118Z,100461.46
2018-05-04T10:45:58.086Z,100462.16
2018-05-04T10:48:24.057Z,100468.43
2018-05-04T10:50:50.055Z,100463.84
2018-05-04T10:53:16.072Z,100462.27
2018-05-04T10:55:42.031Z,100465.19
2018-05-04T10:58:08.002Z,100463.28
2018-05-04T11:00:33.967Z,100462.88
2018-05-04T11:02:59.913Z,100464.00
2018-05-04T11:05:25.931Z,100462.74
2018-05-04T11:07:51.880Z,100462.43
2018-05-04T11:10:17.852Z,100467.51
2018-05-04T11:12:43.804Z,100454.30
2018-05-04T11:15:09.765Z,100463.03
2018-05-04T11:17:35.731Z,100458.41
2018-05-04T11:20:01.709Z,100465.13
2018-05-04T11:22:27.680Z,100464.30
2018-05-04T11:24:53.707Z,100458.36
2018-05-04T11:27:19.670Z,100456.11
2018-05-04T11:29:45.665Z,100454.05
2018-05-04T11:32:11.650Z,100446.34
2018-05-04T11:34:37.649Z,100453.87
2018-05-04T11:37:03.773Z,100451.52
2018-05-04T11:39:29.746Z,100450.31
2018-05-04T11:41:55.722Z,100450.38
2018-05-04T11:44:21.717Z,100445.22
2018-05-04T11:46:47.695Z,100440.41
2018-05-04T11:49:13.648Z,100438.24
2018-05-04T11:51:39.611Z,100439.88
2018-05-04T11:54:05.570Z,100444.09
2018-05-04T11:56:31.787Z,100448.04
2018-05-04T11:58:57.739Z,100448.25
2018-05-04T12:01:23.705Z,100445.70
2018-05-04T12:03:49.670Z,100442.62
2018-05-04T12:06:15.647Z,100442.58
2018-05-04T12:08:41.637Z,100447.62
2018-05-04T12:11:07.629Z,100446.70
2018-05-04T12:13:33.590Z,100449.69
2018-05-04T12:15:59.535Z,100445.41
2018-05-04T12:18:25.492Z,100441.19
2018-05-04T12:20:51.454Z,100434.61
2018-05-04T12:23:17.498Z,100440.42
2018-05-04T12:25:43.813Z,100438.67
2018-05-04T12:28:09.787Z,100439.84
2018-05-04T12:30:35.807Z,100439.50
2018-05-04T12:33:01.771Z,100438.28
2018-05-04T12:35:27.816Z,100434.42
2018-05-04T12:37:53.806Z,100445.75
2018-05-04T12:40:19.771Z,100444.04
2018-05-04T12:42:45.729Z,100438.05
2018-05-04T12:45:11.691Z,100442.16
2018-05-04T12:47:37.680Z,100433.17
2018-05-04T12:50:03.700Z,100434.07
2018-05-04T12:52:29.699Z,100442.08
2018-05-04T12:54:55.646Z,100440.17
2018-05-04T12:57:21.606Z,100441.55
2018-05-04T12:59:47.666Z,100447.44
2018-05-04T13:02:13.648Z,100437.08
2018-05-04T13:04:39.648Z,100440.95
2018-05-04T13:07:05.659Z,100443.41
2018-05-04T13:09:31.650Z,100443.03
2018-05-04T13:11:57.635Z,100436.60
2018-05-04T13:14:23.661Z,100444.73
2018-05-04T13:16:49.693Z,100440.72
2018-05-04T13:19:15.725Z,100433.87
2018-05-04T13:21:41.744Z,100434.24
2018-05-04T13:24:07.726Z,100432.12
2018-05-04T13:26:33.669Z,100436.77
2018-05-04T13:28:59.608Z,100448.17
2018-05-04T13:31:25.965Z,100434.67
2018-05-04T13:33:51.949Z,100426.02
2018-05-04T13:36:17.919Z,100424.28
2018-05-04T13:38:43.934Z,100427.64
2018-05-04T13:41:09.969Z,100417.92
2018-05-04T13:43:36.051Z,100415.48
2018-05-04T13:46:02.075Z,100416.31
2018-05-04T13:48:28.026Z,100423.78
2018-05-04T13:50:54.134Z,100425.45
2018-05-04T13:53:20.074Z,100417.05
2018-05-04T13:55:46.068Z,100410.30
2018-05-04T13:58:12.120Z,100423.09
2018-05-04T14:00:38.102Z,100410.39
2018-05-04T14:03:04.077Z,100416.61
2018-05-04T14:05:30.073Z,100416.02
2018-05-04T14:07:56.042Z,100409.24
2018-05-04T14:10:22.071Z,100411.91
2018-05-04T14:12:48.142Z,100408.28
2018-05-04T14:15:14.136Z,100403.86
2018-05-04T14:17:40.137Z,100399.92
2018-05-04T14:20:06.569Z,100404.14
2018-05-04T14:22:32.582Z,100396.07
2018-05-04T14:24:58.584Z,100397.36
2018-05-04T14:27:24.545Z,100401.56
2018-05-04T14:29:50.575Z,100389.30
2018-05-04T14:32:16.761Z,100397.98
2018-05-04T14:34:42.710Z,100399.09
2018-05-04T14:37:08.660Z,100402.02
2018-05-04T14:39:34.685Z,100400.72
2018-05-04T14:42:00.645Z,100390.09
2018-05-04T14:44:26.639Z,100398.13
2018-05-04T14:46:52.593Z,100405.01
2018-05-04T14:49:18.541Z,100395.20
2018-05-04T14:51:44.523Z,100402.92
2018-05-04T14:54:10.527Z,100394.92
2018-05-04T14:56:36.523Z,100397.80
2018-05-04T14:59:02.469Z,100400.66
2018-05-04T15:01:28.427Z,100394.73
2018-05-04T15:03:54.492Z,100399.59
2018-05-04T15:06:20.514Z,100397.41
2018-05-04T15:08:46.495Z,100409.31
2018-05-04T15:11:12.495Z,100403.45
2018-05-04T15:13:38.487Z,100404.25
2018-05-04T15:16:04.518Z,100414.02
2018-05-04T15:18:30.486Z,100401.27
2018-05-04T15:20:56.444Z,100400.77
2018-05-04T15:23:22.382Z,100404.51
2018-05-04T15:25:48.357Z,100403.23
2018-05-04T15:28:14.349Z,100395.59
2018-05-04T15:30:40.739Z,100410.05
2018-05-04T15:33:06.682Z,100406.55
2018-05-04T15:35:32.701Z,100407.45
2018-05-04T15:37:58.661Z,100404.59
2018-05-04T15:40:24.720Z,100409.65
2018-05-04T15:42:50.661Z,100411.04
2018-05-04T15:45:16.647Z,100413.69
2018-05-04T15:47:42.616Z,100410.70
2018-05-04T15:50:08.579Z,100416.64
2018-05-04T15:52:34.610Z,100419.98
2018-05-04T15:55:00.673Z,100427.16
2018-05-04T15:57:26.563Z,100412.38
2018-05-04T15:59:52.540Z,100411.95
2018-05-04T16:02:18.529Z,100413.50
2018-05-04T16:04:44.516Z,100410.07
2018-05-04T16:07:10.482Z,100423.81
2018-05-04T16:09:36.494Z,100417.86
2018-05-04T16:12:02.443Z,100416.14
2018-05-04T16:14:28.444Z,100414.73
2018-05-04T16:16:54.439Z,100423.29
2018-05-04T16:19:20.459Z,100425.45
2018-05-04T16:21:46.432Z,100414.40
2018-05-04T16:24:12.439Z,100419.14
2018-05-04T16:26:38.441Z,100411.69
2018-05-04T16:29:04.397Z,100419.23
2018-05-04T16:31:30.360Z,100423.52
2018-05-04T16:33:56.362Z,100421.34
2018-05-04T16:36:22.353Z,100419.55
2018-05-04T16:38:48.370Z,100419.75
2018-05-04T16:41:14.323Z,100421.43
2018-05-04T16:43:40.272Z,100415.50
2018-05-04T16:46:06.270Z,100424.34
2018-05-04T16:48:32.289Z,100427.36
2018-05-04T16:50:58.251Z,100419.73
2018-05-04T16:53:24.283Z,100423.08
2018-05-04T16:55:50.295Z,100425.20
2018-05-04T16:58:16.298Z,100425.30
2018-05-04T17:00:42.320Z,100424.44
2018-05-04T17:03:08.457Z,100413.97
2018-05-04T17:05:34.448Z,100414.28
2018-05-04T17:08:00.811Z,100418.47
2018-05-04T17:10:26.858Z,100430.94
2018-05-04T17:12:52.924Z,100426.73
2018-05-04T17:15:18.950Z,100423.69
2018-05-04T17:17:45.012Z,100425.38
2018-05-04T17:20:11.033Z,100426.60
2018-05-04T17:22:36.989Z,100433.08
2018-05-04T17:25:02.991Z,100422.53
2018-05-04T17:27:28.998Z,100429.28
2018-05-04T17:29:55.053Z,100430.14
2018-05-04T17:32:21.056Z,100433.09
2018-05-04T17:34:47.072Z,100430.55
2018-05-04T17:37:13.103Z,100436.42
2018-05-04T17:39:39.083Z,100438.73
2018-05-04T17:42:05.035Z,100439.61
2018-05-04T17:44:31.073Z,100443.52
2018-05-04T17:46:57.126Z,100439.73
2018-05-04T17:49:23.143Z,100432.91
2018-05-04T17:51:49.130Z,100444.09
2018-05-04T17:54:15.136Z,100440.77
2018-05-04T17:56:41.136Z,100439.77
2018-05-04T17:59:07.155Z,100444.22
2018-05-04T18:01:33.236Z,100455.58
2018-05-04T18:03:59.352Z,100453.93
2018-05-04T18:06:25.375Z,100460.39
2018-05-04T18:08:51.363Z,100458.23
2018-05-04T18:11:18.756Z,100465.45
2018-05-04T18:13:45.242Z,100468.50
2018-05-04T18:16:11.259Z,100471.44
2018-05-04T18:18:37.284Z,100472.64
2018-05-04T18:21:03.292Z,100473.20
2018-05-04T18:23:30.402Z,100476.88
2018-05-04T18:25:56.600Z,100480.66
2018-05-04T18:28:22.552Z,100478.61
2018-05-04T18:30:48.737Z,100483.40
2018-05-04T18:33:14.710Z,100481.64
2018-05-04T18:35:40.684Z,100492.22
2018-05-04T18:38:06.683Z,100491.72
2018-05-04T18:40:32.689Z,100487.64
2018-05-04T18:42:58.657Z,100492.39
2018-05-04T18:45:24.622Z,100496.99
2018-05-04T18:47:50.593Z,100500.44
2018-05-04T18:50:16.597Z,100503.77
2018-05-04T18:52:42.590Z,100508.11
2018-05-04T18:55:08.575Z,100510.11
2018-05-04T18:57:34.584Z,100508.00
2018-05-04T19:00:00.587Z,100510.63
2018-05-04T19:02:26.560Z,100511.44
2018-05-04T19:04:52.497Z,100521.16
2018-05-04T19:07:18.442Z,100520.73
2018-05-04T19:09:44.565Z,100520.28
2018-05-04T19:12:10.574Z,100524.11
2018-05-04T19:14:36.686Z,100524.14
2018-05-04T19:17:02.717Z,100521.61
2018-05-04T19:19:28.701Z,100525.80
2018-05-04T19:21:54.726Z,100527.97
2018-05-04T19:24:20.718Z,100529.27
2018-05-04T19:26:46.695Z,100527.11
2018-05-04T19:29:12.776Z,100535.20
2018-05-04T19:31:38.723Z,100533.56
2018-05-04T19:34:04.733Z,100533.50
2018-05-04T19:36:30.904Z,100539.45
2018-05-04T19:38:56.906Z,100542.84
2018-05-04T19:41:23.008Z,100543.28
2018-05-04T19:43:49.318Z,100546.26
2018-05-04T19:46:15.367Z,100549.63
2018-05-04T19:48:41.357Z,100553.47
2018-05-04T19:51:08.339Z,100553.89
2018-05-04T19:53:34.362Z,100558.16
2018-05-04T19:56:00.305Z,100557.73
2018-05-04T19:58:26.295Z,100560.31
2018-05-04T20:00:52.291Z,100550.62
2018-05-04T20:03:18.290Z,100552.71
2018-05-04T20:05:44.270Z,100557.41
2018-05-04T20:08:10.322Z,100555.33
2018-05-04T20:10:36.312Z,100556.14
2018-05-04T20:13:02.362Z,100565.05
2018-05-04T20:15:28.426Z,100562.97
2018-05-04T20:17:54.485Z,100563.36
2018-05-04T20:20:20.434Z,100564.62
2018-05-04T20:22:46.432Z,100565.52
2018-05-04T20:25:12.589Z,100570.15
2018-05-04T20:27:38.697Z,100573.96
2018-05-04T20:30:04.746Z,100579.92
2018-05-04T20:32:30.707Z,100583.27
2018-05-04T20:34:56.657Z,100579.94
2018-05-04T20:37:22.642Z,100585.42
2018-05-04T20:39:48.624Z,100588.84
2018-05-04T20:42:14.609Z,100593.92
2018-05-04T20:44:42.591Z,100590.56
2018-05-04T20:47:08.654Z,100603.25
2018-05-04T20:49:34.647Z,100607.06
2018-05-04T20:52:00.691Z,100602.41
2018-05-04T20:54:26.648Z,100605.81
2018-05-04T20:56:52.614Z,100599.47
2018-05-04T20:59:18.583Z,100601.55
2018-05-04T21:01:44.622Z,100602.84
2018-05-04T21:04:10.585Z,100600.30
2018-05-04T21:06:36.576Z,100608.78
2018-05-04T21:09:02.554Z,100615.98
2018-05-04T21:11:28.582Z,100615.56
2018-05-04T21:13:54.559Z,100619.83
2018-05-04T21:16:20.525Z,100622.38
2018-05-04T21:18:46.497Z,100623.17
2018-05-04T21:21:12.429Z,100630.82
2018-05-04T21:23:38.392Z,100628.65
2018-05-04T21:26:04.332Z,100631.64
2018-05-04T21:28:30.292Z,100635.47
2018-05-04T21:30:56.255Z,100639.73
2018-05-04T21:33:22.227Z,100643.10
2018-05-04T21:35:48.242Z,100638.03
2018-05-04T21:38:14.221Z,100641.41
2018-05-04T21:40:40.176Z,100640.13
2018-05-04T21:43:06.156Z,100644.77
2018-05-04T21:45:32.259Z,100640.97
2018-05-04T21:47:58.243Z,100638.42
2018-05-04T21:50:24.224Z,100639.67
2018-05-04T21:52:50.216Z,100633.32
2018-05-04T21:55:16.196Z,100634.59
2018-05-04T21:57:42.165Z,100640.47
2018-05-04T22:00:08.234Z,100644.73
2018-05-04T22:02:34.195Z,100644.73
2018-05-04T22:05:00.191Z,100651.05
2018-05-04T22:07:26.178Z,100648.07
2018-05-04T22:09:52.117Z,100649.72
2018-05-04T22:12:18.167Z,100645.48
2018-05-04T22:14:44.133Z,100655.19
2018-05-04T22:17:10.105Z,100660.26
2018-05-04T22:19:36.094Z,100659.73
2018-05-04T22:22:02.076Z,100665.66
2018-05-04T22:24:28.022Z,100669.50
2018-05-04T22:26:53.962Z,100670.41
2018-05-04T22:29:19.931Z,100679.72
2018-05-04T22:31:45.944Z,100675.83
2018-05-04T22:34:11.932Z,100680.02
2018-05-04T22:36:37.904Z,100674.00
2018-05-04T22:39:03.867Z,100682.52
2018-05-04T22:41:29.813Z,100683.77
2018-05-04T22:43:55.752Z,100684.37
2018-05-04T22:46:21.703Z,100681.03
2018-05-04T22:48:47.664Z,100681.52
2018-05-04T22:51:13.644Z,100684.39
2018-05-04T22:53:39.628Z,100687.81
2018-05-04T22:56:05.624Z,100688.28
2018-05-04T22:58:31.613Z,100694.18
2018-05-04T23:00:57.562Z,100698.80
2018-05-04T23:03:23.539Z,100698.85
2018-05-04T23:05:49.510Z,100704.32
2018-05-04T23:08:15.485Z,100703.91
2018-05-04T23:10:41.453Z,100705.64
2018-05-04T23:13:07.444Z,100699.69
2018-05-04T23:15:33.448Z,100702.25
2018-05-04T23:17:59.450Z,100704.69
2018-05-04T23:20:25.444Z,100702.63
2018-05-04T23:22:51.450Z,100705.59
2018-05-04T23:25:17.454Z,100703.05
2018-05-04T23:27:43.431Z,100704.69
2018-05-04T23:30:09.405Z,100697.16
2018-05-04T23:32:35.405Z,100699.62
2018-05-04T23:35:01.346Z,100703.36
2018-05-04T23:37:27.307Z,100700.64
2018-05-04T23:39:53.319Z,100708.31
2018-05-04T23:42:19.273Z,100707.63
2018-05-04T23:44:45.204Z,100705.04
2018-05-04T23:47:11.138Z,100705.32
2018-05-04T23:49:37.072Z,100712.19
2018-05-04T23:52:03.043Z,100709.77
2018-05-04T23:54:28.987Z,100716.38
2018-05-04T23:56:54.954Z,100716.53
2018-05-04T23:59:20.906Z,100716.13
